createdAt,value
2022-08-05T00:01:54.478Z,6.82
2022-08-05T00:04:22.745Z,6.20
2022-08-05T00:06:51.761Z,6.30
2022-08-05T00:09:20.478Z,6.05
2022-08-05T00:11:56.042Z,5.75
2022-08-05T00:14:29.125Z,6.20
2022-08-05T00:17:02.098Z,5.78
2022-08-05T00:22:04.323Z,6.35
2022-08-05T00:24:32.672Z,6.43
2022-08-05T00:27:04.522Z,6.43
2022-08-05T00:29:38.520Z,6.90
2022-08-05T00:32:12.362Z,6.40
2022-08-05T00:35:03.982Z,5.80
2022-08-05T00:37:51.395Z,6.05
2022-08-05T00:40:27.571Z,5.95
2022-08-05T00:43:00.020Z,6.50
2022-08-05T00:45:43.186Z,6.55
2022-08-05T00:48:17.831Z,6.80
2022-08-05T00:50:55.810Z,6.72
2022-08-05T00:54:00.439Z,6.13
2022-08-05T00:56:13.365Z,6.15
2022-08-05T00:58:45.775Z,6.22
2022-08-05T01:01:16.185Z,5.68
2022-08-05T01:04:11.775Z,5.80
2022-08-05T01:06:46.688Z,5.50
2022-08-05T01:09:17.389Z,5.28
2022-08-05T01:12:04.523Z,5.53
2022-08-05T01:14:56.279Z,5.65
2022-08-05T01:17:53.806Z,6.00
2022-08-05T01:20:27.803Z,5.75
2022-08-05T01:23:14.293Z,6.13
2022-08-05T01:25:58.276Z,5.80
2022-08-05T01:28:29.898Z,6.40
2022-08-05T01:31:20.982Z,5.93
2022-08-05T01:34:22.444Z,6.43
2022-08-05T01:37:24.834Z,5.72
2022-08-05T01:39:59.232Z,5.90
2022-08-05T01:42:30.189Z,6.20
2022-08-05T01:45:02.309Z,6.75
2022-08-05T01:47:39.683Z,6.90
2022-08-05T01:50:29.833Z,6.13
2022-08-05T01:53:03.382Z,6.57
2022-08-05T01:55:36.280Z,5.82
2022-08-05T01:58:29.709Z,6.32
2022-08-05T02:00:59.688Z,5.65
2022-08-05T02:03:40.705Z,5.93
2022-08-05T02:06:23.906Z,5.78
2022-08-05T02:08:59.324Z,5.75
2022-08-05T02:11:42.167Z,6.18
2022-08-05T02:14:48.936Z,5.65
2022-08-05T02:18:09.925Z,5.63
2022-08-05T02:20:23.491Z,5.72
2022-08-05T02:23:01.458Z,5.60
2022-08-05T02:25:35.987Z,5.38
2022-08-05T02:28:32.135Z,5.20
2022-08-05T02:31:21.205Z,4.40
2022-08-05T02:33:58.087Z,5.88
2022-08-05T02:36:31.629Z,5.70
2022-08-05T02:39:03.172Z,5.45
2022-08-05T02:41:43.178Z,4.97
2022-08-05T02:44:24.699Z,4.55
2022-08-05T02:47:00.208Z,5.30
2022-08-05T02:49:37.883Z,4.88
2022-08-05T02:52:30.201Z,5.30
2022-08-05T02:55:05.249Z,5.07
2022-08-05T02:58:09.833Z,4.85
2022-08-05T03:00:25.409Z,4.78
2022-08-05T03:02:57.448Z,4.15
2022-08-05T03:06:55.040Z,4.40
2022-08-05T03:08:16.560Z,4.20
2022-08-05T03:11:55.461Z,4.38
2022-08-05T03:13:51.768Z,4.68
2022-08-05T03:16:22.530Z,4.70
2022-08-05T03:18:51.316Z,5.13
2022-08-05T03:21:20.184Z,4.93
2022-08-05T03:23:50.483Z,4.65
2022-08-05T03:26:32.040Z,4.80
2022-08-05T03:29:01.546Z,4.22
2022-08-05T03:31:56.691Z,4.35
2022-08-05T03:34:19.683Z,5.18
2022-08-05T03:36:52.646Z,4.95
2022-08-05T03:39:26.635Z,4.47
2022-08-05T03:41:57.397Z,5.28
2022-08-05T03:44:29.069Z,4.93
2022-08-05T03:46:57.402Z,6.60
2022-08-05T03:49:31.095Z,4.68
2022-08-05T03:52:50.258Z,5.22
2022-08-05T03:56:05.654Z,6.32
2022-08-05T03:58:19.275Z,5.72
2022-08-05T04:00:51.697Z,5.63
2022-08-05T04:03:26.752Z,6.40
2022-08-05T04:05:59.204Z,5.88
2022-08-05T04:08:36.814Z,5.87
2022-08-05T04:11:08.568Z,6.05
2022-08-05T04:13:49.930Z,5.82
2022-08-05T04:16:25.058Z,5.40
2022-08-05T04:18:54.933Z,5.60
2022-08-05T04:22:10.006Z,6.05
2022-08-05T04:24:19.107Z,5.85
2022-08-05T04:26:51.194Z,5.70
2022-08-05T04:29:19.788Z,5.60
2022-08-05T04:31:48.537Z,5.68
2022-08-05T04:34:33.800Z,5.50
2022-08-05T04:37:06.946Z,5.82
2022-08-05T04:39:35.285Z,4.90
2022-08-05T04:42:06.978Z,4.88
2022-08-05T04:44:35.177Z,4.68
2022-08-05T04:47:08.891Z,4.90
2022-08-05T04:50:01.391Z,4.38
2022-08-05T04:52:27.810Z,4.38
2022-08-05T04:54:57.798Z,4.68
2022-08-05T04:57:28.781Z,4.47
2022-08-05T04:59:58.950Z,4.20
2022-08-05T05:02:41.183Z,4.28
2022-08-05T05:05:16.847Z,3.97
2022-08-05T05:08:00.963Z,3.95
2022-08-05T05:10:33.302Z,4.05
2022-08-05T05:13:03.669Z,4.07
2022-08-05T05:15:56.595Z,4.20
2022-08-05T05:18:31.354Z,3.78
2022-08-05T05:21:04.194Z,3.70
2022-08-05T05:24:01.851Z,4.07
2022-08-05T05:26:28.343Z,3.80
2022-08-05T05:29:01.083Z,3.88
2022-08-05T05:34:01.963Z,3.92
2022-08-05T05:36:32.323Z,3.67
2022-08-05T05:39:04.469Z,3.30
2022-08-05T05:41:40.478Z,3.60
2022-08-05T05:44:35.505Z,2.97
2022-08-05T05:47:04.006Z,3.10
2022-08-05T05:49:33.255Z,3.20
2022-08-05T05:52:06.088Z,3.20
2022-08-05T05:54:51.086Z,3.78
2022-08-05T05:57:20.437Z,3.20
2022-08-05T05:59:48.747Z,3.15
2022-08-05T06:02:32.809Z,3.15
2022-08-05T06:05:10.575Z,3.40
2022-08-05T06:08:01.363Z,2.90
2022-08-05T06:10:36.780Z,2.97
2022-08-05T06:13:05.871Z,2.97
2022-08-05T06:16:28.194Z,2.83
2022-08-05T06:18:31.286Z,3.20
2022-08-05T06:21:00.719Z,3.30
2022-08-05T06:23:32.169Z,3.13
2022-08-05T06:26:20.949Z,3.05
2022-08-05T06:28:49.769Z,3.00
2022-08-05T06:31:21.874Z,3.28
2022-08-05T06:34:07.881Z,2.90
2022-08-05T06:36:57.136Z,2.70
2022-08-05T06:39:28.050Z,2.83
2022-08-05T06:42:04.099Z,3.13
2022-08-05T06:44:32.868Z,3.13
2022-08-05T06:47:02.277Z,2.60
2022-08-05T06:50:02.068Z,3.15
2022-08-05T06:52:37.690Z,2.97
2022-08-05T06:55:07.958Z,3.10
2022-08-05T06:58:02.699Z,2.97
2022-08-05T07:00:25.527Z,3.00
2022-08-05T07:02:56.514Z,3.03
2022-08-05T07:05:37.435Z,2.80
2022-08-05T07:08:07.060Z,3.03
2022-08-05T07:10:52.518Z,3.08
2022-08-05T07:13:59.491Z,2.70
2022-08-05T07:18:01.614Z,3.00
2022-08-05T07:22:27.839Z,2.70
2022-08-05T07:25:23.620Z,3.25
2022-08-05T07:27:57.275Z,3.08
2022-08-05T07:30:32.269Z,3.43
2022-08-05T07:33:05.323Z,3.58
2022-08-05T07:36:05.387Z,3.03
2022-08-05T07:38:34.006Z,3.33
2022-08-05T07:42:08.920Z,3.63
2022-08-05T07:43:59.717Z,3.25
2022-08-05T07:46:30.477Z,3.63
2022-08-05T07:49:05.575Z,3.67
2022-08-05T07:51:48.516Z,3.63
2022-08-05T07:54:31.147Z,3.58
2022-08-05T07:57:23.694Z,3.83
2022-08-05T07:59:51.687Z,3.88
2022-08-05T08:02:30.786Z,3.75
2022-08-05T08:05:17.446Z,3.78
2022-08-05T08:07:59.473Z,3.10
2022-08-05T08:10:30.131Z,4.03
2022-08-05T08:12:59.777Z,3.20
2022-08-05T08:16:34.455Z,3.70
2022-08-05T08:18:21.031Z,3.63
2022-08-05T08:21:02.082Z,3.80
2022-08-05T08:24:01.409Z,3.60
2022-08-05T08:26:26.869Z,3.72
2022-08-05T08:29:09.739Z,4.30
2022-08-05T08:31:49.776Z,4.00
2022-08-05T08:34:30.750Z,3.88
2022-08-05T08:37:04.627Z,3.70
2022-08-05T08:39:37.424Z,3.80
2022-08-05T08:42:33.614Z,3.90
2022-08-05T08:45:18.522Z,3.67
2022-08-05T08:48:07.549Z,3.63
2022-08-05T08:51:22.157Z,3.88
2022-08-05T08:53:44.502Z,3.97
2022-08-05T08:56:13.921Z,3.70
2022-08-05T08:58:44.385Z,3.75
2022-08-05T09:01:18.442Z,4.15
2022-08-05T09:06:31.866Z,3.65
2022-08-05T09:09:02.003Z,4.30
2022-08-05T09:11:52.111Z,3.38
2022-08-05T09:14:57.403Z,4.32
2022-08-05T09:17:43.158Z,3.70
2022-08-05T09:20:05.709Z,3.88
2022-08-05T09:23:19.460Z,3.58
2022-08-05T09:26:06.239Z,3.53
2022-08-05T09:28:37.502Z,3.00
2022-08-05T09:31:43.534Z,3.80
2022-08-05T09:34:06.370Z,4.00
2022-08-05T09:36:54.916Z,4.03
2022-08-05T09:39:41.167Z,4.00
2022-08-05T09:42:23.970Z,4.20
2022-08-05T09:45:17.939Z,3.67
2022-08-05T09:47:55.598Z,3.70
2022-08-05T09:50:43.707Z,3.90
2022-08-05T09:53:22.807Z,4.18
2022-08-05T09:56:12.883Z,3.90
2022-08-05T09:58:42.291Z,4.03
2022-08-05T10:01:15.254Z,3.58
2022-08-05T10:04:28.635Z,3.73
2022-08-05T10:06:59.352Z,3.75
2022-08-05T10:09:29.910Z,4.53
2022-08-05T10:12:30.643Z,4.47
2022-08-05T10:15:34.947Z,4.00
2022-08-05T10:18:35.518Z,4.07
2022-08-05T10:21:11.971Z,4.20
2022-08-05T10:23:56.090Z,3.92
2022-08-05T10:26:32.614Z,4.22
2022-08-05T10:29:02.888Z,4.07
2022-08-05T10:32:53.917Z,4.03
2022-08-05T10:34:25.860Z,3.97
2022-08-05T10:36:58.617Z,4.00
2022-08-05T10:40:03.507Z,4.35
2022-08-05T10:42:32.339Z,3.88
2022-08-05T10:45:21.126Z,4.15
2022-08-05T10:48:29.197Z,3.67
2022-08-05T10:51:22.022Z,4.05
2022-08-05T10:54:23.104Z,4.30
2022-08-05T10:56:57.907Z,3.70
2022-08-05T11:00:03.611Z,3.83
2022-08-05T11:02:37.637Z,4.30
2022-08-05T11:05:10.492Z,4.50
2022-08-05T11:08:02.967Z,3.97
2022-08-05T11:10:50.047Z,4.53
2022-08-05T11:16:47.962Z,4.15
2022-08-05T11:20:17.660Z,3.97
2022-08-05T11:22:43.532Z,3.55
2022-08-05T11:26:04.486Z,4.20
2022-08-05T11:28:38.465Z,3.67
2022-08-05T11:31:06.854Z,4.05
2022-08-05T11:33:53.395Z,3.80
2022-08-05T11:36:52.835Z,3.90
2022-08-05T11:40:00.678Z,3.88
2022-08-05T11:42:37.804Z,4.07
2022-08-05T11:45:14.412Z,4.22
2022-08-05T11:47:55.378Z,3.72
2022-08-05T11:50:23.746Z,3.63
2022-08-05T11:52:57.745Z,3.93
2022-08-05T11:55:32.054Z,3.42
2022-08-05T11:58:08.515Z,3.67
2022-08-05T12:00:41.381Z,4.20
2022-08-05T12:03:23.957Z,4.00
2022-08-05T12:06:05.948Z,3.97
2022-08-05T12:08:52.540Z,3.65
2022-08-05T12:11:28.096Z,4.10
2022-08-05T12:14:04.518Z,4.00
2022-08-05T12:16:45.600Z,4.10
2022-08-05T12:20:27.152Z,4.05
2022-08-05T12:22:09.593Z,3.67
2022-08-05T12:24:49.716Z,3.78
2022-08-05T12:30:15.485Z,3.92
2022-08-05T12:32:54.429Z,3.95
2022-08-05T12:38:08.312Z,3.80
2022-08-05T12:40:40.054Z,4.03
2022-08-05T12:43:12.575Z,3.75
2022-08-05T12:45:56.608Z,4.07
2022-08-05T12:48:32.198Z,3.70
2022-08-05T12:52:10.924Z,3.22
2022-08-05T12:54:16.691Z,3.83
2022-08-05T12:56:55.526Z,3.45
2022-08-05T13:00:09.075Z,3.80
2022-08-05T13:02:27.294Z,4.10
2022-08-05T13:04:58.953Z,3.58
2022-08-05T13:07:57.504Z,3.83
2022-08-05T13:10:19.861Z,3.60
2022-08-05T13:12:57.128Z,3.80
2022-08-05T13:15:41.402Z,4.20
2022-08-05T13:18:20.556Z,3.70
2022-08-05T13:20:49.819Z,4.30
2022-08-05T13:23:22.477Z,3.88
2022-08-05T13:25:58.943Z,3.53
2022-08-05T13:28:28.890Z,3.88
2022-08-05T13:30:57.281Z,3.60
2022-08-05T13:34:22.896Z,3.63
2022-08-05T13:36:14.695Z,4.00
2022-08-05T13:38:43.330Z,3.80
2022-08-05T13:41:12.513Z,3.92
2022-08-05T13:43:44.331Z,3.95
2022-08-05T13:46:43.808Z,3.80
2022-08-05T13:49:14.507Z,3.95
2022-08-05T13:51:46.408Z,3.75
2022-08-05T13:54:21.256Z,3.67
2022-08-05T13:56:53.923Z,3.72
2022-08-05T13:59:25.320Z,3.97
2022-08-05T14:01:59.836Z,3.63
2022-08-05T14:05:00.667Z,3.72
2022-08-05T14:08:02.652Z,4.07
2022-08-05T14:10:31.044Z,3.97
2022-08-05T14:16:06.972Z,3.72
2022-08-05T14:18:23.222Z,3.57
2022-08-05T14:20:54.760Z,3.83
2022-08-05T14:23:25.433Z,3.90
2022-08-05T14:25:59.031Z,3.92
2022-08-05T14:28:31.257Z,3.92
2022-08-05T14:31:01.517Z,3.95
2022-08-05T14:33:32.678Z,4.68
2022-08-05T14:36:22.511Z,4.23
2022-08-05T14:41:19.514Z,3.90
2022-08-05T14:44:00.283Z,3.63
2022-08-05T14:46:35.037Z,3.70
2022-08-05T14:49:08.142Z,3.90
2022-08-05T14:51:38.033Z,3.65
2022-08-05T14:54:27.466Z,3.57
2022-08-05T14:56:56.580Z,3.63
2022-08-05T14:59:29.811Z,3.72
2022-08-05T15:02:14.932Z,3.70
2022-08-05T15:04:53.412Z,3.70
2022-08-05T15:08:05.341Z,3.38
2022-08-05T15:10:10.229Z,3.85
2022-08-05T15:12:57.967Z,3.90
2022-08-05T15:15:55.608Z,3.67
2022-08-05T15:18:17.247Z,4.15
2022-08-05T15:20:47.250Z,4.05
2022-08-05T15:23:15.917Z,4.03
2022-08-05T15:25:52.773Z,3.42
2022-08-05T15:28:27.097Z,3.65
2022-08-05T15:30:56.655Z,4.13
2022-08-05T15:34:18.371Z,4.03
2022-08-05T15:36:17.368Z,3.92
2022-08-05T15:40:58.965Z,4.18
2022-08-05T15:41:55.871Z,3.80
2022-08-05T15:44:30.153Z,4.30
2022-08-05T15:47:01.438Z,4.18
2022-08-05T15:49:48.171Z,4.07
2022-08-05T15:52:52.084Z,3.85
2022-08-05T15:55:16.375Z,3.67
2022-08-05T15:57:49.048Z,3.88
2022-08-05T16:00:26.073Z,3.28
2022-08-05T16:03:07.067Z,3.55
2022-08-05T16:05:35.359Z,4.00
2022-08-05T16:08:07.532Z,3.47
2022-08-05T16:10:36.243Z,3.97
2022-08-05T16:13:04.817Z,3.75
2022-08-05T16:15:33.973Z,3.63
2022-08-05T16:18:04.205Z,3.80
2022-08-05T16:20:32.784Z,4.18
2022-08-05T16:23:01.591Z,3.95
2022-08-05T16:25:33.802Z,3.80
2022-08-05T16:28:09.468Z,4.20
2022-08-05T16:30:38.593Z,4.07
2022-08-05T16:33:07.009Z,3.85
2022-08-05T16:35:42.359Z,4.13
2022-08-05T16:38:23.748Z,4.10
2022-08-05T16:41:00.607Z,4.05
2022-08-05T16:43:35.468Z,4.55
2022-08-05T16:46:23.450Z,3.95
2022-08-05T16:48:53.862Z,3.95
2022-08-05T16:54:05.897Z,4.60
2022-08-05T16:56:42.262Z,4.03
2022-08-05T16:59:10.868Z,4.25
2022-08-05T17:01:53.614Z,4.20
2022-08-05T17:04:27.424Z,4.30
2022-08-05T17:07:01.104Z,4.35
2022-08-05T17:09:39.033Z,4.78
2022-08-05T17:12:22.741Z,4.43
2022-08-05T17:15:09.682Z,4.30
2022-08-05T17:17:44.574Z,4.13
2022-08-05T17:20:14.772Z,3.75
2022-08-05T17:22:44.909Z,4.20
2022-08-05T17:25:33.379Z,4.45
2022-08-05T17:28:01.932Z,6.07
2022-08-05T17:30:30.665Z,5.35
2022-08-05T17:32:58.692Z,8.23
2022-08-05T17:35:27.066Z,6.18
2022-08-05T17:38:17.457Z,4.95
2022-08-05T17:40:46.337Z,16.80
2022-08-05T17:43:15.872Z,5.63
2022-08-05T17:45:44.544Z,6.38
2022-08-05T17:48:13.076Z,6.47
2022-08-05T17:53:12.212Z,6.53
2022-08-05T17:55:40.347Z,5.72
2022-08-05T17:58:13.386Z,7.68
2022-08-05T18:00:50.728Z,9.38
2022-08-05T18:03:48.393Z,21.45
2022-08-05T18:06:11.009Z,15.43
2022-08-05T18:08:44.779Z,10.93
2022-08-05T18:11:24.473Z,8.68
2022-08-05T18:14:13.468Z,8.95
2022-08-05T18:16:47.023Z,9.40
2022-08-05T18:19:23.095Z,9.10
2022-08-05T18:22:09.034Z,10.13
2022-08-05T18:24:40.589Z,9.00
2022-08-05T18:27:12.711Z,10.48
2022-08-05T18:32:32.076Z,10.55
2022-08-05T18:35:01.382Z,11.25
2022-08-05T18:37:33.962Z,10.52
2022-08-05T18:40:34.646Z,10.95
2022-08-05T18:43:04.414Z,27.13
2022-08-05T18:45:41.383Z,44.58
2022-08-05T18:48:11.041Z,36.80
2022-08-05T18:51:01.617Z,19.25
2022-08-05T18:53:50.151Z,9.95
2022-08-05T18:56:21.886Z,11.68
2022-08-05T18:59:00.823Z,30.88
2022-08-05T19:01:33.225Z,17.63
2022-08-05T19:04:01.582Z,21.00
2022-08-05T19:06:44.591Z,35.90
2022-08-05T19:09:13.592Z,35.15
2022-08-05T19:12:01.140Z,33.67
2022-08-05T19:14:59.328Z,18.45
2022-08-05T19:17:20.037Z,31.88
2022-08-05T19:19:50.276Z,17.80
2022-08-05T19:22:18.471Z,9.05
2022-08-05T19:24:56.549Z,7.03
2022-08-05T19:27:27.772Z,7.40
2022-08-05T19:29:58.731Z,7.10
2022-08-05T19:32:27.873Z,7.15
2022-08-05T19:34:57.878Z,7.30
2022-08-05T19:37:29.835Z,7.13
2022-08-05T19:40:08.219Z,7.05
2022-08-05T19:42:39.104Z,6.55
2022-08-05T19:45:08.419Z,7.13
2022-08-05T19:47:43.034Z,6.75
2022-08-05T19:50:12.494Z,7.32
2022-08-05T19:52:40.988Z,6.43
2022-08-05T19:56:12.606Z,7.28
2022-08-05T19:58:14.416Z,7.57
2022-08-05T20:00:47.275Z,8.35
2022-08-05T20:03:16.088Z,8.90
2022-08-05T20:05:51.206Z,7.35
2022-08-05T20:08:24.507Z,9.10
2022-08-05T20:10:54.468Z,8.30
2022-08-05T20:13:54.778Z,8.05
2022-08-05T20:16:12.536Z,9.30
2022-08-05T20:18:48.667Z,8.63
2022-08-05T20:21:25.681Z,8.82
2022-08-05T20:23:59.995Z,7.78
2022-08-05T20:26:29.082Z,7.85
2022-08-05T20:29:00.623Z,7.35
2022-08-05T20:31:42.158Z,8.07
2022-08-05T20:34:20.000Z,9.07
2022-08-05T20:36:48.978Z,8.25
2022-08-05T20:39:18.781Z,7.63
2022-08-05T20:41:48.687Z,6.45
2022-08-05T20:44:29.547Z,6.85
2022-08-05T20:47:06.686Z,7.47
2022-08-05T20:49:41.466Z,24.17
2022-08-05T20:52:12.174Z,12.07
2022-08-05T20:54:42.786Z,12.07
2022-08-05T20:57:14.424Z,10.68
2022-08-05T21:00:11.097Z,9.90
2022-08-05T21:02:31.472Z,8.88
2022-08-05T21:05:01.132Z,9.13
2022-08-05T21:07:50.736Z,9.13
2022-08-05T21:10:21.668Z,8.65
2022-08-05T21:12:57.792Z,8.00
2022-08-05T21:15:38.491Z,8.73
2022-08-05T21:18:06.834Z,7.40
2022-08-05T21:20:35.450Z,8.23
2022-08-05T21:23:04.877Z,7.65
2022-08-05T21:25:34.496Z,7.50
2022-08-05T21:28:04.007Z,8.88
2022-08-05T21:30:32.108Z,6.50
2022-08-05T21:33:01.799Z,7.15
2022-08-05T21:35:55.794Z,7.18
2022-08-05T21:38:19.773Z,7.00
2022-08-05T21:40:48.200Z,7.40
2022-08-05T21:43:24.692Z,7.28
2022-08-05T21:45:57.545Z,8.35
2022-08-05T21:48:29.480Z,8.25
2022-08-05T21:51:00.414Z,7.68
2022-08-05T21:53:28.402Z,8.02
2022-08-05T21:56:06.335Z,7.88
2022-08-05T21:58:48.304Z,8.00
2022-08-05T22:01:27.463Z,7.03
2022-08-05T22:03:56.123Z,8.55
2022-08-05T22:06:35.170Z,7.55
2022-08-05T22:09:14.557Z,7.28
2022-08-05T22:11:46.990Z,7.13
2022-08-05T22:14:37.337Z,6.80
2022-08-05T22:17:07.439Z,7.78
2022-08-05T22:20:01.088Z,7.63
2022-08-05T22:22:26.936Z,7.38
2022-08-05T22:25:27.360Z,7.43
2022-08-05T22:28:09.415Z,7.53
2022-08-05T22:30:56.020Z,7.55
2022-08-05T22:33:56.727Z,7.88
2022-08-05T22:36:18.114Z,8.10
2022-08-05T22:38:48.304Z,7.70
2022-08-05T22:41:26.487Z,7.68
2022-08-05T22:44:09.698Z,8.30
2022-08-05T22:46:41.352Z,7.50
2022-08-05T22:49:23.551Z,7.88
2022-08-05T22:52:07.153Z,7.45
2022-08-05T22:54:40.596Z,7.40
2022-08-05T22:57:17.264Z,6.82
2022-08-05T22:59:53.578Z,7.28
2022-08-05T23:02:29.615Z,34.50
2022-08-05T23:05:01.910Z,18.92
2022-08-05T23:07:45.292Z,14.23
2022-08-05T23:10:20.694Z,10.95
2022-08-05T23:12:55.068Z,11.02
2022-08-05T23:15:34.866Z,8.95
2022-08-05T23:18:06.017Z,8.80
2022-08-05T23:20:40.081Z,8.68
2022-08-05T23:23:11.648Z,9.32
2022-08-05T23:25:52.619Z,8.73
2022-08-05T23:28:28.676Z,8.68
2022-08-05T23:31:15.853Z,9.15
2022-08-05T23:34:05.355Z,8.32
2022-08-05T23:36:38.411Z,8.70
2022-08-05T23:39:07.473Z,8.20
2022-08-05T23:41:37.264Z,8.05
2022-08-05T23:44:09.604Z,7.78
2022-08-05T23:46:39.312Z,8.20
2022-08-05T23:49:16.217Z,8.45
2022-08-05T23:52:05.740Z,7.78
2022-08-05T23:54:38.337Z,8.35
2022-08-05T23:57:08.335Z,11.18
